Time;durP1;ratioP1;P1;durP2;ratioP2;P2;SDS_P1;SDS_P2;PMS_P1;PMS_P2;Temp;Humidity;BMP_temperature;BMP_pressure;BME280_temperature;BME280_humidity;BME280_pressure;Samples;Min_cycle;Max_cycle;Signal;HPM_P1;HPM_P2
2024/04/14 00:01:05;;;;;;;23.38;12.20;;;;;;;8.04;74.89;98586.94;5543578;25;21287;-62
2024/04/14 00:03:30;;;;;;;21.90;11.05;;;;;;;7.99;75.19;98584.22;5539018;25;20463;-63
2024/04/14 00:05:56;;;;;;;22.95;11.90;;;;;;;7.96;75.40;98569.66;5540109;25;20076;-63
2024/04/14 00:08:22;;;;;;;21.15;12.18;;;;;;;7.94;75.29;98569.13;5542176;25;20013;-64
2024/04/14 00:10:48;;;;;;;23.60;11.15;;;;;;;7.89;75.40;98570.88;5507427;25;20013;-64
2024/04/14 00:13:14;;;;;;;23.38;12.57;;;;;;;7.90;75.66;98565.34;5540556;25;20064;-63
2024/04/14 00:15:39;;;;;;;21.60;11.35;;;;;;;7.86;75.90;98564.25;5538947;25;20005;-63
2024/04/14 00:18:05;;;;;;;21.25;11.68;;;;;;;7.78;75.89;98558.56;5555378;25;20001;-65
2024/04/14 00:20:31;;;;;;;24.13;12.27;;;;;;;7.81;75.93;98566.00;5560676;25;20001;-64
2024/04/14 00:22:59;;;;;;;23.75;11.27;;;;;;;7.81;75.69;98564.16;5559659;25;19992;-65
2024/04/14 00:25:25;;;;;;;21.00;11.75;;;;;;;7.80;76.20;98567.03;5559040;25;20045;-63
2024/04/14 00:27:50;;;;;;;24.08;11.05;;;;;;;7.78;76.55;98572.53;5561163;25;19997;-64
2024/04/14 00:30:16;;;;;;;18.33;10.48;;;;;;;7.71;77.15;98566.63;5558946;25;20088;-65
2024/04/14 00:32:42;;;;;;;22.42;11.52;;;;;;;7.66;77.04;98571.81;5560999;25;19993;-65
2024/04/14 00:35:08;;;;;;;24.75;10.80;;;;;;;7.60;76.79;98576.19;5560451;25;20019;-64
2024/04/14 00:37:34;;;;;;;23.13;11.55;;;;;;;7.51;78.30;98572.34;5528022;25;20011;-65
2024/04/14 00:39:59;;;;;;;26.23;11.05;;;;;;;7.50;78.42;98579.47;5560335;25;20076;-64
2024/04/14 00:42:25;;;;;;;18.13;9.50;;;;;;;7.49;78.49;98563.88;5559358;25;20461;-65
2024/04/14 00:44:51;;;;;;;20.42;10.57;;;;;;;7.51;79.00;98565.25;5527687;25;20480;-64
2024/04/14 00:47:17;;;;;;;17.88;9.13;;;;;;;7.47;79.50;98558.03;5564784;25;19992;-62
2024/04/14 00:49:43;;;;;;;17.58;9.27;;;;;;;7.48;79.62;98555.16;5564127;25;20024;-63
2024/04/14 00:52:09;;;;;;;16.08;9.65;;;;;;;7.50;79.88;98558.38;5525465;26;20107;-64
2024/04/14 00:54:36;;;;;;;19.52;10.80;;;;;;;7.48;79.46;98552.53;5525712;25;20005;-62
2024/04/14 00:57:03;;;;;;;21.27;9.88;;;;;;;7.46;79.03;98554.59;5564467;25;20068;-64
2024/04/14 00:59:30;;;;;;;40.25;14.80;;;;;;;7.40;78.22;98552.91;5564240;25;20019;-63
2024/04/14 01:01:56;;;;;;;42.28;14.52;;;;;;;7.36;78.75;98553.63;5562318;25;20001;-62
2024/04/14 01:04:24;;;;;;;32.85;14.82;;;;;;;7.31;78.67;98561.44;5532066;25;20001;-63
2024/04/14 01:06:49;;;;;;;33.13;15.18;;;;;;;7.27;79.11;98556.66;5562575;25;20381;-64
2024/04/14 01:09:16;;;;;;;42.00;17.05;;;;;;;7.23;78.68;98552.06;5562597;25;20001;-63
2024/04/14 01:11:42;;;;;;;35.38;14.02;;;;;;;7.19;79.27;98549.09;5564015;25;20521;-63
2024/04/14 01:14:11;;;;;;;49.42;17.38;;;;;;;7.20;78.59;98555.16;5564105;25;20033;-64
2024/04/14 01:16:36;;;;;;;37.60;15.52;;;;;;;7.13;78.60;98551.88;5563827;25;20008;-63
2024/04/14 01:19:06;;;;;;;31.15;14.60;;;;;;;7.11;79.85;98546.03;5564178;25;20045;-65
2024/04/14 01:21:32;;;;;;;33.27;15.40;;;;;;;7.08;79.58;98546.50;5525107;25;20058;-63
2024/04/14 01:23:58;;;;;;;29.00;14.38;;;;;;;7.03;80.60;98534.84;5526755;25;20346;-63
2024/04/14 01:26:24;;;;;;;30.38;15.35;;;;;;;7.05;80.22;98542.50;5539919;25;20011;-64
2024/04/14 01:28:50;;;;;;;37.38;16.13;;;;;;;6.98;79.43;98537.38;5561970;25;20470;-64
2024/04/14 01:31:16;;;;;;;28.52;13.95;;;;;;;6.99;80.19;98541.63;5561889;25;20385;-63
2024/04/14 01:33:42;;;;;;;34.42;14.48;;;;;;;7.00;80.04;98542.41;5530634;25;20041;-63
2024/04/14 01:36:08;;;;;;;31.48;14.85;;;;;;;6.93;80.36;98534.66;5561552;25;19997;-64
2024/04/14 01:38:34;;;;;;;29.30;13.60;;;;;;;6.92;80.19;98537.53;5563721;25;20003;-64
2024/04/14 01:41:01;;;;;;;27.88;12.38;;;;;;;6.65;81.87;98503.81;5563558;25;20335;-62
2024/04/14 01:43:28;;;;;;;18.63;11.15;;;;;;;6.83;81.64;98535.25;5561623;25;20000;-64
2024/04/14 01:45:53;;;;;;;24.15;10.73;;;;;;;6.85;82.31;98537.63;5530781;25;20012;-63
2024/04/14 01:48:19;;;;;;;20.45;9.75;;;;;;;6.90;83.13;98535.13;5561594;25;20454;-65
2024/04/14 01:50:45;;;;;;;20.25;11.27;;;;;;;6.91;82.44;98534.09;5563112;25;19997;-63
2024/04/14 01:53:16;;;;;;;16.48;8.93;;;;;;;6.91;83.58;98539.38;5561587;25;20461;-64
2024/04/14 01:55:45;;;;;;;16.90;9.60;;;;;;;6.90;83.52;98535.13;5563160;25;19996;-63
2024/04/14 01:58:11;;;;;;;19.88;9.40;;;;;;;6.91;83.65;98535.91;5560539;25;20413;-64
2024/04/14 02:00:37;;;;;;;17.20;9.25;;;;;;;6.90;83.74;98540.38;5563086;25;20020;-62
2024/04/14 02:03:03;;;;;;;18.60;9.40;;;;;;;6.88;83.54;98544.28;5523924;26;20497;-65
2024/04/14 02:05:29;;;;;;;16.55;9.65;;;;;;;6.85;83.67;98544.75;5525886;25;20448;-63
2024/04/14 02:07:55;;;;;;;22.45;9.95;;;;;;;6.83;84.25;98542.38;5539781;25;20001;-65
2024/04/14 02:10:21;;;;;;;17.40;8.90;;;;;;;6.88;84.31;98546.91;5563156;25;20012;-63
2024/04/14 02:12:47;;;;;;;17.52;8.95;;;;;;;6.87;84.78;98554.03;5562852;25;20495;-65
2024/04/14 02:15:14;;;;;;;17.20;9.88;;;;;;;6.88;84.93;98545.06;5561012;25;20000;-62
2024/04/14 02:17:40;;;;;;;15.23;8.95;;;;;;;6.87;84.88;98546.13;5562945;25;20029;-62
2024/04/14 02:20:26;;;;;;;16.52;8.57;;;;;;;6.87;85.31;98551.38;5561627;25;20012;-64
2024/04/14 02:22:52;;;;;;;14.80;7.90;;;;;;;6.83;85.52;98542.38;5562765;25;20001;-65
2024/04/14 02:25:18;;;;;;;10.10;7.30;;;;;;;6.87;85.92;98546.13;5562887;25;20017;-64
2024/04/14 02:27:44;;;;;;;12.18;7.22;;;;;;;6.82;87.01;98551.28;5560492;25;20067;-66
2024/04/14 02:30:10;;;;;;;11.00;7.35;;;;;;;6.88;87.42;98545.06;5562845;25;20009;-64
2024/04/14 02:32:36;;;;;;;9.48;6.60;;;;;;;6.90;87.63;98540.38;5530087;25;20427;-65
2024/04/14 02:35:02;;;;;;;10.90;6.57;;;;;;;6.92;87.28;98542.81;5559933;25;20084;-64
2024/04/14 02:37:29;;;;;;;11.77;6.53;;;;;;;6.93;87.63;98537.28;5562891;25;19997;-65
2024/04/14 02:39:56;;;;;;;9.38;5.75;;;;;;;6.97;87.63;98543.69;5560759;25;20041;-64
2024/04/14 02:42:22;;;;;;;11.65;5.90;;;;;;;6.98;88.00;98545.28;5560985;25;19992;-63
2024/04/14 02:44:47;;;;;;;9.80;6.70;;;;;;;7.12;87.76;98547.63;5560318;25;19997;-64
2024/04/14 02:47:14;;;;;;;11.43;5.82;;;;;;;7.32;86.81;98542.75;5562849;25;19993;-64
2024/04/14 02:49:40;;;;;;;11.82;5.97;;;;;;;7.46;85.90;98533.50;5560572;25;19997;-64
2024/04/14 02:52:06;;;;;;;11.52;6.25;;;;;;;7.68;84.99;98541.53;5562822;25;20470;-65
2024/04/14 02:54:32;;;;;;;10.57;6.30;;;;;;;7.83;83.96;98551.53;5562028;25;20427;-63
2024/04/14 02:56:58;;;;;;;11.25;6.15;;;;;;;7.96;83.32;98553.81;5562513;25;20025;-64
2024/04/14 02:59:24;;;;;;;10.95;6.13;;;;;;;8.09;82.85;98543.97;5562351;25;19996;-64
2024/04/14 03:01:49;;;;;;;9.25;5.47;;;;;;;8.27;82.17;98530.53;5562312;25;20004;-63
2024/04/14 03:04:15;;;;;;;12.73;6.05;;;;;;;8.35;81.43;98527.50;5561946;25;20050;-64
2024/04/14 03:06:41;;;;;;;7.97;5.55;;;;;;;8.38;81.20;98532.31;5560626;25;19993;-64
2024/04/14 03:09:06;;;;;;;9.15;5.45;;;;;;;8.45;81.24;98531.34;5562233;25;20004;-65
2024/04/14 03:11:32;;;;;;;8.07;5.07;;;;;;;8.48;80.50;98538.75;5560641;25;20413;-64
2024/04/14 03:13:58;;;;;;;6.10;5.15;;;;;;;8.52;80.45;98545.16;5562055;25;20099;-64
2024/04/14 03:16:23;;;;;;;9.93;5.10;;;;;;;8.69;80.34;98547.75;5561701;25;19997;-64
2024/04/14 03:18:49;;;;;;;9.35;5.63;;;;;;;9.04;79.13;98544.72;5560156;25;20028;-65
2024/04/14 03:21:15;;;;;;;8.88;5.65;;;;;;;9.24;77.48;98539.66;5561507;25;19997;-64
2024/04/14 03:23:42;;;;;;;12.55;5.63;;;;;;;9.14;77.63;98538.75;5562438;25;19996;-64
2024/04/14 03:26:08;;;;;;;11.95;5.72;;;;;;;9.04;77.91;98542.09;5559988;25;20015;-64
2024/04/14 03:28:34;;;;;;;9.02;5.20;;;;;;;8.99;78.16;98542.03;5560476;25;19993;-65
2024/04/14 03:31:01;;;;;;;12.50;5.78;;;;;;;9.05;77.92;98551.59;5559934;25;20012;-65
2024/04/14 03:33:30;;;;;;;7.03;5.32;;;;;;;9.02;77.68;98549.44;5560162;25;20007;-64
2024/04/14 03:36:03;;;;;;;9.88;5.47;;;;;;;8.90;78.26;98548.78;5559836;25;20465;-65
2024/04/14 03:38:29;;;;;;;8.80;5.82;;;;;;;8.72;79.33;98541.97;5560479;25;20390;-64
2024/04/14 03:40:55;;;;;;;10.80;5.88;;;;;;;8.61;79.63;98538.41;5559786;25;20016;-65
2024/04/14 03:43:21;;;;;;;11.50;5.65;;;;;;;8.55;80.13;98528.81;5528844;25;19996;-65
2024/04/14 03:45:47;;;;;;;8.45;5.93;;;;;;;8.56;80.18;98527.75;5559272;25;20001;-64
2024/04/14 03:48:13;;;;;;;9.10;5.97;;;;;;;8.87;79.31;98521.81;5498001;25;20004;-66
2024/04/14 03:50:40;;;;;;;7.93;5.50;;;;;;;9.17;78.26;98525.03;5559162;25;20462;-65
2024/04/14 03:53:09;;;;;;;10.80;7.03;;;;;;;9.63;76.76;98520.97;5561686;25;20065;-64
2024/04/14 03:55:35;;;;;;;11.50;5.72;;;;;;;10.04;74.77;98523.91;5561140;25;20030;-64
2024/04/14 03:58:01;;;;;;;7.45;5.18;;;;;;;10.39;73.24;98518.06;5561609;25;20005;-64
2024/04/14 04:00:27;;;;;;;6.63;5.10;;;;;;;10.57;72.51;98527.44;5561311;25;20012;-64
2024/04/14 04:02:52;;;;;;;7.28;5.40;;;;;;;10.85;71.57;98520.09;5559652;25;20369;-64
2024/04/14 04:05:18;;;;;;;8.23;5.03;;;;;;;11.09;70.30;98521.25;5561063;25;20001;-66
2024/04/14 04:07:47;;;;;;;6.95;4.80;;;;;;;11.29;69.16;98527.66;5561085;25;20013;-65
2024/04/14 04:10:13;;;;;;;8.73;5.10;;;;;;;11.52;68.78;98524.50;5559334;25;20013;-64
2024/04/14 04:12:39;;;;;;;5.22;4.22;;;;;;;11.77;67.46;98520.28;5559203;25;20013;-65
2024/04/14 04:15:05;;;;;;;8.55;4.60;;;;;;;12.05;66.43;98519.72;5559409;25;20005;-64
2024/04/14 04:17:31;;;;;;;6.43;4.70;;;;;;;12.22;65.41;98522.09;5560698;25;19997;-64
2024/04/14 04:19:57;;;;;;;7.68;4.72;;;;;;;12.03;65.55;98497.19;5561379;25;20005;-64
2024/04/14 04:22:23;;;;;;;7.05;4.65;;;;;;;12.38;64.74;98517.56;5564387;25;20068;-65
2024/04/14 04:24:49;;;;;;;7.55;4.80;;;;;;;12.62;64.25;98520.41;5470694;25;19997;-64
2024/04/14 04:27:15;;;;;;;6.20;4.65;;;;;;;12.61;63.88;98513.47;5564616;25;20457;-65
2024/04/14 04:29:41;;;;;;;8.45;4.57;;;;;;;12.67;62.95;98520.38;5564716;25;20498;-65
2024/04/14 04:32:07;;;;;;;10.18;5.28;;;;;;;12.67;63.40;98516.91;5564644;25;19997;-63
2024/04/14 04:34:32;;;;;;;8.38;5.18;;;;;;;12.75;63.04;98520.88;5564798;25;20015;-64
2024/04/14 04:36:58;;;;;;;8.18;6.10;;;;;;;12.76;62.79;98512.63;5564067;25;20007;-64
2024/04/14 04:39:24;;;;;;;7.43;5.40;;;;;;;12.80;63.04;98523.53;5562389;25;20012;-64
2024/04/14 04:41:49;;;;;;;9.40;6.15;;;;;;;12.79;62.46;98520.03;5564681;25;20064;-64
2024/04/14 04:44:15;;;;;;;7.47;5.05;;;;;;;12.85;62.80;98518.16;5494346;26;20013;-64
2024/04/14 04:46:41;;;;;;;8.10;5.05;;;;;;;13.08;62.01;98517.50;5525036;26;20280;-64
2024/04/14 04:49:07;;;;;;;11.48;5.68;;;;;;;13.27;61.65;98516.94;5557413;25;20011;-64
2024/04/14 04:51:32;;;;;;;7.85;5.28;;;;;;;13.20;60.90;98514.53;5564330;25;20533;-63
2024/04/14 04:53:58;;;;;;;9.65;5.78;;;;;;;12.94;62.15;98508.53;5562124;25;20000;-63
2024/04/14 04:56:24;;;;;;;8.00;5.97;;;;;;;12.76;62.70;98515.28;5562174;25;20001;-64
2024/04/14 04:58:50;;;;;;;8.38;5.30;;;;;;;12.63;63.17;98506.03;5563692;25;20001;-64
2024/04/14 05:01:15;;;;;;;11.15;6.93;;;;;;;12.47;63.56;98493.84;5562452;25;20353;-64
2024/04/14 05:03:41;;;;;;;9.75;6.35;;;;;;;12.33;64.04;98490.19;5563875;25;20007;-64
2024/04/14 05:06:07;;;;;;;11.52;7.10;;;;;;;12.20;64.75;98495.00;5563975;25;20015;-63
2024/04/14 05:08:33;;;;;;;10.05;6.65;;;;;;;12.20;64.81;98489.69;5563953;25;20029;-64
2024/04/14 05:10:59;;;;;;;11.00;6.78;;;;;;;12.15;65.49;98478.28;5561944;25;20375;-63
2024/04/14 05:13:26;;;;;;;11.20;7.05;;;;;;;12.07;65.49;98465.56;5562171;25;20007;-64
2024/04/14 05:15:53;;;;;;;8.80;6.15;;;;;;;11.97;66.42;98466.34;5531100;25;20422;-65
2024/04/14 05:18:19;;;;;;;9.77;6.50;;;;;;;11.98;66.54;98470.63;5500278;25;20041;-64
2024/04/14 05:20:45;;;;;;;8.93;6.57;;;;;;;12.04;66.27;98475.66;5530721;25;20458;-63
2024/04/14 05:23:11;;;;;;;12.35;6.38;;;;;;;12.09;66.26;98472.19;5561852;25;20003;-65
2024/04/14 05:25:37;;;;;;;10.45;6.93;;;;;;;12.00;66.54;98463.16;5561527;25;20012;-63
2024/04/14 05:28:03;;;;;;;9.30;6.07;;;;;;;12.06;66.56;98467.41;5561861;25;19993;-64
2024/04/14 05:30:29;;;;;;;12.05;6.50;;;;;;;12.02;66.62;98463.69;5563326;25;20019;-62
2024/04/14 05:32:57;;;;;;;9.43;7.20;;;;;;;11.97;66.59;98458.38;5562122;25;20029;-64
2024/04/14 05:35:23;;;;;;;9.75;6.47;;;;;;;11.95;66.96;98455.22;5524534;25;20009;-62
2024/04/14 05:37:49;;;;;;;10.32;7.07;;;;;;;12.00;66.67;98457.84;5526583;25;19998;-62
2024/04/14 05:40:14;;;;;;;9.75;6.97;;;;;;;12.11;66.74;98448.00;5546455;25;20084;-62
2024/04/14 05:42:40;;;;;;;14.18;7.45;;;;;;;12.22;66.16;98450.38;5563701;25;19998;-63
2024/04/14 05:45:09;;;;;;;8.93;6.57;;;;;;;12.37;66.13;98454.03;5560539;25;20008;-62
2024/04/14 05:47:36;;;;;;;10.57;6.35;;;;;;;12.49;65.39;98455.31;5563268;25;20068;-62
2024/04/14 05:50:04;;;;;;;10.23;6.07;;;;;;;12.49;65.27;98441.22;5545084;25;20007;-62
2024/04/14 05:52:31;;;;;;;11.90;6.30;;;;;;;12.53;65.38;98442.28;5544203;25;20498;-63
2024/04/14 05:54:57;;;;;;;13.80;6.45;;;;;;;12.54;65.10;98440.41;5542050;25;20270;-61
2024/04/14 05:57:25;;;;;;;9.68;6.65;;;;;;;12.61;64.85;98443.56;5541900;25;20073;-61
2024/04/14 05:59:51;;;;;;;14.57;7.00;;;;;;;12.57;64.87;98437.22;5544621;25;19996;-61
2024/04/14 06:02:17;;;;;;;11.68;6.82;;;;;;;12.55;65.11;98437.47;5540765;25;20077;-62
2024/04/14 06:04:43;;;;;;;7.50;5.97;;;;;;;12.68;64.87;98434.22;5526933;25;20476;-60
2024/04/14 06:07:08;;;;;;;11.75;6.00;;;;;;;12.84;64.23;98439.47;5563213;25;20001;-62
2024/04/14 06:09:34;;;;;;;10.38;6.13;;;;;;;12.90;64.09;98441.00;5563279;25;20045;-62
2024/04/14 06:12:00;;;;;;;8.27;5.88;;;;;;;12.87;64.06;98425.59;5562831;25;20012;-62
2024/04/14 06:14:26;;;;;;;7.55;5.88;;;;;;;12.93;64.14;98432.47;5563394;25;20016;-62
2024/04/14 06:16:51;;;;;;;11.82;6.40;;;;;;;12.87;64.19;98431.72;5562735;25;20016;-61
2024/04/14 06:19:18;;;;;;;7.90;6.10;;;;;;;12.85;64.38;98433.88;5561271;25;20024;-61
2024/04/14 06:21:44;;;;;;;8.07;5.97;;;;;;;12.85;64.00;98425.91;5555164;25;20001;-62
2024/04/14 06:24:10;;;;;;;10.68;5.68;;;;;;;13.00;63.68;98438.31;5514194;25;20001;-61
2024/04/14 06:26:37;;;;;;;10.45;5.65;;;;;;;13.01;63.59;98441.75;5540017;25;20002;-61
2024/04/14 06:29:03;;;;;;;10.43;5.65;;;;;;;13.05;62.89;98440.91;5542884;25;20453;-62
2024/04/14 06:31:29;;;;;;;8.00;5.20;;;;;;;13.11;63.05;98431.81;5539809;25;20366;-60
2024/04/14 06:33:54;;;;;;;11.65;5.88;;;;;;;13.06;62.79;98433.72;5535268;25;20017;-62
2024/04/14 06:36:20;;;;;;;8.38;5.95;;;;;;;13.18;62.67;98426.22;5534614;25;20013;-58
2024/04/14 06:38:46;;;;;;;7.38;5.60;;;;;;;13.38;61.91;98428.75;5539733;25;20005;-62
2024/04/14 06:41:12;;;;;;;8.48;5.80;;;;;;;13.40;61.53;98417.81;5543849;25;20001;-60
2024/04/14 06:43:38;;;;;;;8.25;5.55;;;;;;;13.52;61.80;98420.88;5514325;25;20070;-61
2024/04/14 06:46:04;;;;;;;10.00;5.45;;;;;;;13.76;60.65;98423.59;5541378;25;20016;-61
2024/04/14 06:48:30;;;;;;;8.27;5.50;;;;;;;13.79;60.41;98422.22;5540272;25;20470;-61
2024/04/14 06:50:56;;;;;;;10.07;5.50;;;;;;;13.77;60.20;98422.53;5546711;25;20009;-62
2024/04/14 06:53:22;;;;;;;6.68;5.20;;;;;;;13.73;60.14;98410.03;5545086;25;20019;-63
2024/04/14 06:55:50;;;;;;;8.93;5.93;;;;;;;13.80;59.79;98415.84;5543962;25;20001;-61
2024/04/14 06:58:17;;;;;;;8.15;5.97;;;;;;;13.81;59.79;98412.88;5560280;25;20094;-62
2024/04/14 07:00:43;;;;;;;8.25;5.68;;;;;;;13.83;59.74;98415.28;5560612;25;20000;-61
2024/04/14 07:03:11;;;;;;;8.85;6.03;;;;;;;13.91;59.43;98421.84;5492627;26;20417;-61
2024/04/14 07:05:37;;;;;;;7.03;5.20;;;;;;;13.84;59.70;98422.19;5524666;25;20011;-61
2024/04/14 07:08:04;;;;;;;8.13;5.57;;;;;;;13.82;59.55;98414.50;5553782;25;20024;-61
2024/04/14 07:10:30;;;;;;;8.73;5.82;;;;;;;13.84;59.73;98411.53;5556224;25;20353;-60
2024/04/14 07:12:56;;;;;;;7.80;5.82;;;;;;;13.90;59.35;98414.94;5538339;25;20001;-62
2024/04/14 07:15:22;;;;;;;11.73;6.05;;;;;;;14.05;59.08;98417.44;5542011;25;20006;-60
2024/04/14 07:17:47;;;;;;;7.15;5.85;;;;;;;14.14;59.04;98409.63;5542658;25;20410;-59
2024/04/14 07:20:13;;;;;;;6.50;5.57;;;;;;;14.44;58.24;98416.44;5539192;25;20494;-60
2024/04/14 07:22:39;;;;;;;8.10;5.53;;;;;;;14.67;57.39;98410.28;5538764;25;20020;-61
2024/04/14 07:25:05;;;;;;;7.43;5.55;;;;;;;14.39;58.03;98411.19;5539759;25;20029;-60
2024/04/14 07:27:30;;;;;;;6.32;5.60;;;;;;;14.46;58.27;98403.63;5543077;25;20033;-60
2024/04/14 07:29:56;;;;;;;7.22;5.20;;;;;;;14.57;57.97;98410.44;5547112;25;20020;-59
2024/04/14 07:32:22;;;;;;;5.18;4.65;;;;;;;14.69;57.50;98408.16;5559612;25;19996;-58
2024/04/14 07:34:48;;;;;;;7.18;4.80;;;;;;;14.57;57.21;98407.00;5558698;25;20000;-61
2024/04/14 07:37:13;;;;;;;4.55;4.03;;;;;;;14.46;57.69;98392.97;5529271;25;20016;-63
2024/04/14 07:39:39;;;;;;;5.93;4.50;;;;;;;14.53;57.76;98396.91;5541976;25;20078;-61
2024/04/14 07:42:08;;;;;;;7.00;4.45;;;;;;;14.52;57.84;98392.63;5544567;25;20017;-61
2024/04/14 07:44:35;;;;;;;7.20;5.45;;;;;;;14.63;57.70;98390.63;5540421;25;20001;-62
2024/04/14 07:47:01;;;;;;;7.95;4.60;;;;;;;14.77;57.36;98391.50;5543401;25;20080;-62
2024/04/14 07:49:28;;;;;;;9.55;4.97;;;;;;;14.88;57.15;98397.50;5538607;25;20021;-62
2024/04/14 07:51:53;;;;;;;6.57;5.03;;;;;;;14.87;57.13;98385.22;5540787;25;20020;-61
2024/04/14 07:54:19;;;;;;;6.88;4.55;;;;;;;14.93;56.55;98370.72;5543062;25;20228;-62
2024/04/14 07:56:45;;;;;;;8.68;4.85;;;;;;;15.17;56.45;98377.81;5542354;25;20019;-62
2024/04/14 07:59:10;;;;;;;8.50;5.15;;;;;;;15.32;55.70;98382.91;5541149;25;20013;-61
2024/04/14 08:01:38;;;;;;;6.75;5.07;;;;;;;15.39;55.36;98380.66;5547807;25;20458;-61
2024/04/14 08:04:04;;;;;;;6.25;5.13;;;;;;;15.19;55.77;98371.09;5560616;25;20038;-63
2024/04/14 08:06:31;;;;;;;7.50;4.97;;;;;;;15.09;56.11;98368.59;5532720;25;20026;-61
2024/04/14 08:08:57;;;;;;;6.35;4.60;;;;;;;15.17;55.82;98364.47;5527155;25;20310;-61
2024/04/14 08:11:24;;;;;;;6.63;4.63;;;;;;;15.17;56.13;98361.78;5546045;25;20400;-63
2024/04/14 08:13:50;;;;;;;8.63;5.00;;;;;;;14.97;56.25;98365.56;5529795;25;20028;-62
2024/04/14 08:16:15;;;;;;;6.30;4.82;;;;;;;15.05;56.53;98362.25;5521214;25;19998;-60
2024/04/14 08:18:44;;;;;;;7.28;5.00;;;;;;;15.37;55.77;98363.34;5527848;25;20479;-61
2024/04/14 08:21:09;;;;;;;6.57;4.72;;;;;;;15.71;54.61;98368.38;5536579;25;20387;-62
2024/04/14 08:23:35;;;;;;;5.53;4.50;;;;;;;15.97;54.00;98352.66;5524569;25;20277;-60
2024/04/14 08:26:02;;;;;;;6.15;4.88;;;;;;;16.03;53.44;98358.66;5562047;25;20000;-60
2024/04/14 08:28:27;;;;;;;5.85;4.20;;;;;;;16.04;53.43;98354.91;5594503;25;20059;-61
2024/04/14 08:30:53;;;;;;;7.15;4.45;;;;;;;16.04;53.65;98352.25;5541429;25;20006;-59
2024/04/14 08:33:19;;;;;;;5.50;3.95;;;;;;;15.90;53.69;98345.00;5509419;25;20831;-60
2024/04/14 08:35:45;;;;;;;5.15;3.90;;;;;;;15.99;53.50;98355.00;5539223;25;20023;-60
2024/04/14 08:38:10;;;;;;;7.25;4.15;;;;;;;16.00;53.31;98346.72;5532984;25;20057;-62
2024/04/14 08:40:36;;;;;;;5.53;3.63;;;;;;;15.90;53.00;98338.88;5555333;25;19997;-61
2024/04/14 08:43:02;;;;;;;5.72;3.40;;;;;;;15.85;52.82;98339.78;5526635;25;20004;-61
2024/04/14 08:45:29;;;;;;;5.80;3.33;;;;;;;15.91;52.93;98335.09;5559003;25;20001;-60
2024/04/14 08:47:55;;;;;;;11.05;6.00;;;;;;;16.01;52.57;98326.13;5557744;25;20667;-61
2024/04/14 08:50:24;;;;;;;5.25;3.42;;;;;;;16.02;52.87;98333.03;5558239;25;19997;-61
2024/04/14 08:52:50;;;;;;;6.53;3.55;;;;;;;16.08;52.53;98326.50;5557888;25;20004;-61
2024/04/14 08:55:16;;;;;;;8.27;3.63;;;;;;;16.06;52.36;98326.00;5557010;25;19996;-62
2024/04/14 08:57:44;;;;;;;6.45;3.28;;;;;;;16.15;52.14;98329.56;5557664;25;20338;-63
2024/04/14 09:00:17;;;;;;;4.45;3.38;;;;;;;16.15;52.00;98323.41;5557335;25;20004;-62
2024/04/14 09:02:45;;;;;;;5.75;3.05;;;;;;;16.03;52.00;98335.41;5490401;26;19997;-62
2024/04/14 09:05:12;;;;;;;5.95;2.97;;;;;;;15.75;52.23;98333.84;5556580;25;20041;-59
2024/04/14 09:07:39;;;;;;;5.07;2.88;;;;;;;15.63;52.48;98328.94;5560547;25;20007;-60
2024/04/14 09:10:05;;;;;;;8.27;2.80;;;;;;;15.43;53.09;98330.91;5562700;25;20017;-62
2024/04/14 09:12:33;;;;;;;4.65;3.03;;;;;;;15.24;53.48;98324.06;5562929;25;19997;-67
2024/04/14 09:14:59;;;;;;;4.10;2.35;;;;;;;15.14;53.95;98320.47;5560336;25;19997;-65
2024/04/14 09:17:25;;;;;;;5.13;2.65;;;;;;;15.33;53.44;98308.94;5562533;25;20001;-63
2024/04/14 09:19:51;;;;;;;6.53;3.08;;;;;;;15.33;54.06;98309.72;5559894;25;20001;-62
2024/04/14 09:22:20;;;;;;;3.85;2.30;;;;;;;15.50;53.56;98309.16;5543834;25;20001;-62
2024/04/14 09:24:46;;;;;;;5.57;3.03;;;;;;;15.82;52.90;98305.63;5492591;25;20001;-62
2024/04/14 09:27:12;;;;;;;4.30;2.70;;;;;;;16.13;52.64;98310.34;5529475;25;20524;-65
2024/04/14 09:29:38;;;;;;;4.75;2.92;;;;;;;16.31;51.76;98309.41;5524910;25;20009;-64
2024/04/14 09:32:04;;;;;;;3.55;2.65;;;;;;;16.44;51.48;98313.16;5557122;25;20004;-63
2024/04/14 09:34:30;;;;;;;4.22;2.25;;;;;;;16.35;51.57;98309.59;5560990;25;20020;-64
2024/04/14 09:36:57;;;;;;;5.68;2.55;;;;;;;16.44;51.48;98297.13;5562348;25;19996;-62
2024/04/14 09:39:26;;;;;;;5.93;2.20;;;;;;;16.46;51.00;98300.25;5560821;25;20001;-63
2024/04/14 09:41:52;;;;;;;2.55;2.10;;;;;;;16.45;51.66;98293.34;5562168;25;20502;-63
2024/04/14 09:44:18;;;;;;;5.32;2.15;;;;;;;16.40;51.62;98285.41;5560505;25;20050;-63
2024/04/14 09:46:45;;;;;;;6.72;2.10;;;;;;;16.63;51.22;98280.88;5559900;25;20049;-63
2024/04/14 09:49:15;;;;;;;11.25;2.60;;;;;;;16.95;50.64;98276.41;5562049;25;20342;-63
2024/04/14 09:51:41;;;;;;;3.15;2.20;;;;;;;17.21;49.89;98279.22;5491405;26;20001;-63
2024/04/14 09:54:10;;;;;;;3.33;2.20;;;;;;;17.23;49.18;98260.94;5525070;25;20482;-64
2024/04/14 09:56:36;;;;;;;2.40;2.10;;;;;;;17.17;49.21;98275.56;5532801;25;20016;-62
2024/04/14 09:59:02;;;;;;;5.93;1.92;;;;;;;17.05;49.47;98272.66;5542584;25;20009;-62
2024/04/14 10:01:34;;;;;;;4.18;2.10;;;;;;;17.21;48.94;98268.50;5539930;25;20012;-62
2024/04/14 10:04:03;;;;;;;2.80;1.50;;;;;;;17.25;48.48;98262.22;5541935;25;20433;-62
2024/04/14 10:06:29;;;;;;;6.60;1.93;;;;;;;17.23;48.72;98264.41;5537058;25;20000;-63
2024/04/14 10:08:56;;;;;;;5.50;1.90;;;;;;;17.34;48.44;98259.56;5541141;25;20001;-63
2024/04/14 10:11:24;;;;;;;2.75;1.88;;;;;;;17.31;48.76;98260.19;5545208;25;20000;-62
2024/04/14 10:13:54;;;;;;;4.32;1.80;;;;;;;17.40;48.51;98252.97;5558609;25;20089;-61
2024/04/14 10:16:22;;;;;;;1.92;1.67;;;;;;;17.45;48.22;98257.41;5495437;25;19992;-62
2024/04/14 10:18:48;;;;;;;4.18;1.80;;;;;;;17.27;48.27;98247.75;5552397;25;20005;-63
2024/04/14 10:21:21;;;;;;;9.60;1.90;;;;;;;17.25;48.31;98245.38;5508998;25;20473;-63
2024/04/14 10:23:56;;;;;;;5.03;2.15;;;;;;;17.19;48.52;98239.34;5542534;25;20037;-61
2024/04/14 10:26:22;;;;;;;7.15;1.90;;;;;;;16.82;48.54;98235.22;5521739;25;20001;-61
2024/04/14 10:28:55;;;;;;;6.70;2.17;;;;;;;16.60;49.55;98229.88;5545701;25;19997;-62
2024/04/14 10:31:29;;;;;;;2.75;1.92;;;;;;;16.58;49.47;98227.50;5509962;26;20463;-62
2024/04/14 10:34:08;;;;;;;11.05;2.50;;;;;;;16.65;49.47;98227.06;5508633;25;20026;-62
2024/04/14 10:36:35;;;;;;;5.53;1.80;;;;;;;16.50;49.60;98223.69;5542607;25;20001;-61
2024/04/14 10:39:05;;;;;;;4.05;2.00;;;;;;;16.34;49.75;98217.09;5492163;25;20020;-62
2024/04/14 10:41:31;;;;;;;7.37;3.17;;;;;;;16.26;49.92;98215.16;5507886;25;20017;-62
2024/04/14 10:43:57;;;;;;;3.10;2.17;;;;;;;16.11;50.34;98224.31;5552072;25;20001;-62
2024/04/14 10:46:23;;;;;;;4.82;1.98;;;;;;;15.99;50.95;98216.03;5561283;25;20360;-61
2024/04/14 10:48:50;;;;;;;5.53;2.30;;;;;;;15.66;52.46;98218.84;5558434;25;20346;-63
2024/04/14 10:51:16;;;;;;;6.03;2.63;;;;;;;15.45;54.45;98210.44;5507400;25;20065;-63
2024/04/14 10:53:42;;;;;;;3.63;2.03;;;;;;;15.31;55.25;98218.47;5536662;25;20012;-61
2024/04/14 10:56:08;;;;;;;7.22;2.35;;;;;;;15.16;55.54;98224.09;5526410;25;20072;-63
2024/04/14 10:58:34;;;;;;;4.15;2.38;;;;;;;15.09;56.73;98221.81;5557875;25;20392;-62
2024/04/14 11:01:01;;;;;;;3.60;2.30;;;;;;;15.05;56.71;98220.03;5557604;25;20025;-63
2024/04/14 11:03:27;;;;;;;5.10;2.20;;;;;;;14.98;58.94;98231.88;5547389;25;20005;-63
2024/04/14 11:05:54;;;;;;;2.42;2.10;;;;;;;14.94;61.25;98228.22;5539740;25;20470;-62
2024/04/14 11:08:21;;;;;;;4.07;2.58;;;;;;;14.93;62.95;98226.63;5529964;25;20006;-63
2024/04/14 11:10:47;;;;;;;3.65;3.35;;;;;;;14.91;63.79;98226.16;5559381;25;20038;-63
2024/04/14 11:13:16;;;;;;;7.30;2.80;;;;;;;14.83;63.63;98226.81;5527889;25;19997;-62
2024/04/14 11:15:42;;;;;;;4.00;2.60;;;;;;;14.93;63.95;98229.28;5558137;25;20038;-64
2024/04/14 11:18:08;;;;;;;4.20;2.80;;;;;;;14.86;63.11;98226.22;5560888;25;19996;-62
2024/04/14 11:20:35;;;;;;;5.90;3.10;;;;;;;14.72;63.21;98220.06;5558062;25;20004;-61
2024/04/14 11:23:01;;;;;;;3.35;2.60;;;;;;;14.83;64.18;98218.81;5561028;25;19996;-64
2024/04/14 11:25:29;;;;;;;10.10;7.88;;;;;;;14.77;63.47;98210.09;5560621;25;20028;-62
2024/04/14 11:27:54;;;;;;;3.92;2.47;;;;;;;15.09;62.67;98207.66;5560724;25;20000;-63